Time;durP1;ratioP1;P1;durP2;ratioP2;P2;SDS_P1;SDS_P2;PMS_P1;PMS_P2;Temp;Humidity;BMP_temperature;BMP_pressure;BME280_temperature;BME280_humidity;BME280_pressure;Samples;Min_cycle;Max_cycle;Signal;HPM_P1;HPM_P2
2022/04/25 00:02:21;;;;;;;35.90;10.43;;;;;;;5.47;100.00;100289.41;7387091;19;20403;-50
2022/04/25 00:04:51;;;;;;;19.30;7.10;;;;;;;5.46;100.00;100290.22;7397416;19;20419;-50
2022/04/25 00:07:21;;;;;;;16.80;5.30;;;;;;;5.50;100.00;100286.13;7395069;19;20459;-47
2022/04/25 00:09:50;;;;;;;9.40;4.43;;;;;;;5.48;100.00;100287.75;7399480;19;20391;-48
2022/04/25 00:12:20;;;;;;;11.50;4.00;;;;;;;5.49;100.00;100284.38;7394834;19;20390;-49
2022/04/25 00:14:49;;;;;;;13.37;5.00;;;;;;;5.48;100.00;100292.88;7397708;19;20421;-48
2022/04/25 00:17:21;;;;;;;17.40;5.50;;;;;;;5.47;100.00;100291.97;7396746;19;20391;-50
2022/04/25 00:19:51;;;;;;;24.43;8.70;;;;;;;5.47;100.00;100286.84;7399341;19;20397;-49
2022/04/25 00:22:20;;;;;;;14.33;5.40;;;;;;;5.38;100.00;100291.44;7391210;19;20913;-52
2022/04/25 00:24:50;;;;;;;16.70;7.10;;;;;;;5.49;100.00;100285.25;7396020;19;20762;-53
2022/04/25 00:27:20;;;;;;;11.70;5.40;;;;;;;5.49;100.00;100292.06;7391220;19;20400;-47
2022/04/25 00:29:55;;;;;;;13.30;5.60;;;;;;;5.47;100.00;100296.19;7398007;19;20802;-48
2022/04/25 00:32:28;;;;;;;13.00;4.80;;;;;;;5.47;100.00;100302.19;7393346;19;20384;-48
2022/04/25 00:34:57;;;;;;;16.03;5.50;;;;;;;5.43;100.00;100295.13;7395730;19;21009;-50
2022/04/25 00:37:27;;;;;;;12.10;4.90;;;;;;;5.40;100.00;100292.44;7389274;19;20727;-46
2022/04/25 00:39:56;;;;;;;11.93;4.20;;;;;;;5.42;100.00;100301.06;7394752;19;20471;-51
2022/04/25 00:42:26;;;;;;;12.47;4.60;;;;;;;5.43;100.00;100300.25;7385011;19;20389;-46
2022/04/25 00:44:55;;;;;;;8.57;4.47;;;;;;;5.40;100.00;100289.88;7393275;19;20407;-50
2022/04/25 00:47:28;;;;;;;8.10;4.13;;;;;;;5.43;100.00;100295.13;7390763;19;20387;-53
2022/04/25 00:49:58;;;;;;;10.80;4.77;;;;;;;5.43;100.00;100299.41;7395755;19;20414;-48
2022/04/25 00:52:27;;;;;;;10.53;4.03;;;;;;;5.43;100.00;100302.81;7391469;19;20402;-48
2022/04/25 00:54:57;;;;;;;11.37;4.00;;;;;;;5.32;100.00;100301.38;7393339;19;20416;-49
2022/04/25 00:57:27;;;;;;;10.93;4.67;;;;;;;5.29;100.00;100301.19;7392679;19;20414;-50
2022/04/25 00:59:57;;;;;;;10.70;4.20;;;;;;;5.31;100.00;100300.47;7394942;19;20389;-50
2022/04/25 01:02:29;;;;;;;8.57;4.40;;;;;;;5.35;100.00;100314.31;7389049;19;20463;-46
2022/04/25 01:04:59;;;;;;;10.60;4.20;;;;;;;5.33;100.00;100309.09;7393021;19;20417;-48
2022/04/25 01:07:29;;;;;;;9.97;4.93;;;;;;;5.38;100.00;100306.78;7383770;19;20411;-46
2022/04/25 01:10:00;;;;;;;10.33;4.40;;;;;;;5.35;100.00;100312.66;7397843;19;20386;-46
2022/04/25 01:12:30;;;;;;;12.40;4.10;;;;;;;5.37;100.00;100305.94;7393338;19;20452;-50
2022/04/25 01:15:00;;;;;;;12.53;4.63;;;;;;;5.44;100.00;100306.28;7395739;19;20417;-45
2022/04/25 01:17:33;;;;;;;12.07;4.37;;;;;;;5.34;100.00;100312.56;7391329;19;20396;-44
2022/04/25 01:20:02;;;;;;;10.53;4.20;;;;;;;5.32;100.00;100307.34;7400256;19;20794;-46
2022/04/25 01:22:34;;;;;;;12.10;4.00;;;;;;;5.21;100.00;100310.97;7390706;19;20925;-49
2022/04/25 01:27:49;;;;;;;12.13;4.03;;;;;;;5.21;100.00;100310.97;7391539;19;20768;-50
2022/04/25 01:30:19;;;;;;;11.00;3.77;;;;;;;5.20;100.00;100312.66;7397367;19;20382;-47
2022/04/25 01:32:49;;;;;;;10.00;3.47;;;;;;;5.05;100.00;100316.91;7392130;19;20952;-48
2022/04/25 01:35:19;;;;;;;9.83;3.80;;;;;;;5.10;100.00;100315.50;7394633;19;20769;-46
2022/04/25 01:37:48;;;;;;;15.73;4.10;;;;;;;5.07;100.00;100325.56;7391616;19;20426;-46
2022/04/25 01:40:20;;;;;;;9.83;3.40;;;;;;;5.12;100.00;100324.13;7397091;19;20388;-47
2022/04/25 01:42:50;;;;;;;9.93;3.70;;;;;;;5.08;100.00;100324.75;7389963;19;20419;-47
2022/04/25 01:45:20;;;;;;;8.57;3.83;;;;;;;5.02;100.00;100332.09;7394815;19;20425;-52
2022/04/25 01:47:49;;;;;;;10.70;3.60;;;;;;;5.06;100.00;100340.00;7390043;19;20430;-49
2022/04/25 01:50:19;;;;;;;7.83;3.87;;;;;;;5.03;100.00;100334.69;7396816;19;20395;-47
2022/04/25 01:52:49;;;;;;;6.50;3.00;;;;;;;5.03;100.00;100339.81;7390059;19;20419;-47
2022/04/25 01:55:21;;;;;;;11.23;3.60;;;;;;;5.04;100.00;100343.28;7393930;19;20937;-48
2022/04/25 01:57:50;;;;;;;20.43;3.40;;;;;;;5.06;100.00;100345.13;7390986;19;20426;-47
2022/04/25 02:00:21;;;;;;;10.00;3.80;;;;;;;5.07;100.00;100346.03;7395554;19;20392;-47
2022/04/25 02:02:50;;;;;;;19.30;3.33;;;;;;;5.01;100.00;100346.53;7391019;19;21179;-47
2022/04/25 02:05:20;;;;;;;8.23;3.13;;;;;;;5.00;100.00;100350.78;7394373;19;20423;-48
2022/04/25 02:07:49;;;;;;;9.57;3.60;;;;;;;4.93;100.00;100358.00;7393178;19;20795;-49
2022/04/25 02:10:21;;;;;;;11.17;3.70;;;;;;;4.93;100.00;100352.88;7395939;19;20384;-46
2022/04/25 02:12:51;;;;;;;12.43;3.47;;;;;;;4.91;100.00;100355.34;7390566;19;20419;-46
2022/04/25 02:15:21;;;;;;;11.00;3.73;;;;;;;4.87;100.00;100353.38;7394518;19;20419;-51
2022/04/25 02:17:50;;;;;;;10.40;3.30;;;;;;;4.88;100.00;100354.28;7389443;19;20441;-49
2022/04/25 02:20:20;;;;;;;8.20;2.90;;;;;;;4.88;100.00;100355.19;7395640;19;20388;-48
2022/04/25 02:22:50;;;;;;;12.20;4.40;;;;;;;4.89;100.00;100354.38;7389089;19;20421;-46
2022/04/25 02:25:22;;;;;;;9.47;3.17;;;;;;;4.93;100.00;100363.13;7393273;19;20426;-49
2022/04/25 02:27:51;;;;;;;6.97;3.13;;;;;;;4.94;100.00;100360.66;7390156;19;20424;-47
2022/04/25 02:30:21;;;;;;;14.93;3.60;;;;;;;4.94;100.00;100367.44;7394506;19;20478;-47
2022/04/25 02:32:50;;;;;;;18.37;4.43;;;;;;;4.87;100.00;100361.06;7390059;19;20466;-47
2022/04/25 02:35:20;;;;;;;12.93;5.43;;;;;;;4.85;100.00;100358.44;7393234;19;20416;-47
2022/04/25 02:37:49;;;;;;;11.60;4.53;;;;;;;4.83;100.00;100354.03;7390267;19;20400;-50
2022/04/25 02:40:21;;;;;;;11.00;3.90;;;;;;;4.77;100.00;100359.63;7395103;19;20391;-49
2022/04/25 02:42:51;;;;;;;8.57;3.60;;;;;;;4.90;100.00;100348.47;7388581;19;20416;-46
2022/04/25 02:45:20;;;;;;;10.93;3.63;;;;;;;4.90;100.00;100358.69;7392921;19;20764;-49
2022/04/25 02:47:50;;;;;;;10.03;4.03;;;;;;;4.79;100.00;100355.53;7387208;19;20426;-49
2022/04/25 02:50:20;;;;;;;10.03;3.40;;;;;;;4.75;100.00;100360.34;7393185;19;20384;-46
2022/04/25 02:52:53;;;;;;;8.30;3.70;;;;;;;4.71;100.00;100352.50;7387871;19;20422;-46
2022/04/25 02:55:25;;;;;;;14.27;3.80;;;;;;;4.73;100.00;100345.78;7392258;19;20417;-52
2022/04/25 02:57:55;;;;;;;11.50;4.37;;;;;;;4.79;100.00;100341.84;7386951;19;20406;-47
2022/04/25 03:00:24;;;;;;;8.57;3.30;;;;;;;4.69;100.00;100341.31;7394335;19;20392;-48
2022/04/25 03:02:54;;;;;;;8.57;2.73;;;;;;;4.65;100.00;100336.81;7389218;19;20415;-49
2022/04/25 03:05:24;;;;;;;7.77;3.80;;;;;;;4.63;100.00;100338.41;7391730;19;20428;-46
2022/04/25 03:07:54;;;;;;;12.67;4.90;;;;;;;4.62;100.00;100343.41;7389509;19;20415;-48
2022/04/25 03:10:26;;;;;;;9.97;4.00;;;;;;;4.67;100.00;100335.22;7394027;19;20928;-50
2022/04/25 03:12:55;;;;;;;14.03;4.93;;;;;;;4.64;100.00;100335.06;7388570;19;20430;-52
2022/04/25 03:15:25;;;;;;;13.20;5.50;;;;;;;4.64;100.00;100332.50;7392631;19;20414;-51
2022/04/25 03:17:54;;;;;;;10.97;4.57;;;;;;;4.65;100.00;100336.81;7387880;19;20961;-50
2022/04/25 03:20:23;;;;;;;11.70;3.60;;;;;;;4.65;100.00;100334.25;7393610;19;20726;-53
2022/04/25 03:22:53;;;;;;;14.53;3.83;;;;;;;4.66;100.00;100335.16;7386163;19;20403;-48
2022/04/25 03:25:25;;;;;;;7.63;3.23;;;;;;;4.64;100.00;100329.94;7394270;19;20428;-51
2022/04/25 03:27:55;;;;;;;8.80;3.40;;;;;;;4.65;100.00;100326.59;7388207;19;20945;-48
2022/04/25 03:30:24;;;;;;;7.60;3.57;;;;;;;4.67;100.00;100330.09;7392649;19;20375;-46
2022/04/25 03:32:56;;;;;;;10.03;4.53;;;;;;;4.63;100.00;100333.28;7385684;19;20426;-48
2022/04/25 03:35:26;;;;;;;9.87;3.70;;;;;;;4.55;100.00;100331.94;7391746;19;20408;-48
2022/04/25 03:37:55;;;;;;;10.07;3.27;;;;;;;4.61;100.00;100329.75;7385833;19;20399;-46
2022/04/25 03:40:27;;;;;;;9.50;3.30;;;;;;;4.57;100.00;100331.22;7393322;19;20383;-48
2022/04/25 03:42:57;;;;;;;11.67;3.43;;;;;;;4.53;100.00;100336.09;7386386;19;20430;-47
2022/04/25 03:45:26;;;;;;;7.83;3.27;;;;;;;4.53;100.00;100338.63;7391470;19;20411;-48
2022/04/25 03:47:56;;;;;;;9.07;3.90;;;;;;;4.51;100.00;100335.97;7387139;19;20752;-45
2022/04/25 03:50:26;;;;;;;8.70;4.07;;;;;;;4.52;100.00;100339.44;7392349;19;20913;-49
2022/04/25 03:52:55;;;;;;;11.33;4.50;;;;;;;4.61;100.00;100339.97;7382286;19;20410;-45
2022/04/25 03:58:11;;;;;;;8.30;3.60;;;;;;;4.54;100.00;100337.84;7386195;19;20417;-46
2022/04/25 04:00:41;;;;;;;6.70;3.23;;;;;;;4.54;100.00;100340.41;7393003;19;20928;-47
2022/04/25 04:03:14;;;;;;;11.00;3.03;;;;;;;4.39;100.00;100341.25;7387570;19;20414;-51
2022/04/25 04:05:44;;;;;;;9.77;4.70;;;;;;;4.39;100.00;100338.69;7390450;19;20429;-50
2022/04/25 04:08:13;;;;;;;7.90;3.50;;;;;;;4.38;100.00;100342.03;7386199;19;20438;-46
2022/04/25 04:10:45;;;;;;;13.47;3.20;;;;;;;4.38;100.00;100344.59;7392244;19;20463;-50
2022/04/25 04:13:15;;;;;;;7.47;3.27;;;;;;;4.38;100.00;100343.72;7389797;19;20445;-50
2022/04/25 04:15:44;;;;;;;9.97;3.43;;;;;;;4.36;100.00;100343.59;7390606;19;20414;-48
2022/04/25 04:18:14;;;;;;;10.47;3.57;;;;;;;4.37;100.00;100342.84;7386668;19;20419;-46
2022/04/25 04:20:43;;;;;;;11.60;4.40;;;;;;;4.41;100.00;100346.47;7392191;19;20383;-48
2022/04/25 04:23:13;;;;;;;11.10;3.70;;;;;;;4.45;100.00;100351.84;7385599;19;20439;-46
2022/04/25 04:25:45;;;;;;;8.00;3.30;;;;;;;4.42;100.00;100349.09;7390298;19;20753;-49
2022/04/25 04:28:15;;;;;;;16.73;3.60;;;;;;;4.44;100.00;100350.09;7385146;19;20415;-45
2022/04/25 04:30:46;;;;;;;6.93;3.53;;;;;;;4.43;100.00;100345.78;7392237;19;20387;-47
2022/04/25 04:33:16;;;;;;;7.27;3.40;;;;;;;4.43;100.00;100353.44;7386858;19;20430;-47
2022/04/25 04:38:27;;;;;;;8.90;4.20;;;;;;;4.31;100.00;100352.69;7385328;19;20443;-48
2022/04/25 04:40:59;;;;;;;10.50;3.90;;;;;;;4.32;100.00;100357.00;7391912;19;20399;-49
2022/04/25 04:43:29;;;;;;;9.37;4.00;;;;;;;4.33;100.00;100356.22;7385463;19;20522;-48
2022/04/25 04:45:59;;;;;;;8.03;3.57;;;;;;;4.33;100.00;100368.97;7392334;19;20415;-47
2022/04/25 04:48:29;;;;;;;11.13;3.30;;;;;;;4.30;100.00;100364.56;7386774;19;20412;-50
2022/04/25 04:50:58;;;;;;;8.27;3.50;;;;;;;4.30;100.00;100373.88;7398494;19;20392;-46
2022/04/25 04:53:28;;;;;;;7.90;3.73;;;;;;;4.26;100.00;100366.84;7383910;19;20449;-50
2022/04/25 04:56:06;;;;;;;6.70;3.10;;;;;;;4.27;100.00;100366.06;7396039;19;20474;-48
2022/04/25 04:58:41;;;;;;;9.73;3.50;;;;;;;4.27;100.00;100373.72;7394905;19;20435;-48
2022/04/25 05:01:11;;;;;;;10.37;3.97;;;;;;;4.30;100.00;100368.78;7398802;19;20394;-46
2022/04/25 05:03:43;;;;;;;6.90;3.50;;;;;;;4.21;100.00;100370.78;7388831;19;20426;-50
2022/04/25 05:06:12;;;;;;;12.23;3.70;;;;;;;5.46;100.00;100332.81;7395054;19;20769;-50
2022/04/25 05:08:42;;;;;;;7.37;4.07;;;;;;;5.66;100.00;100328.81;7391808;19;20473;-46
2022/04/25 05:11:15;;;;;;;9.67;3.83;;;;;;;5.91;100.00;100330.16;7398239;19;20396;-49
2022/04/25 05:13:44;;;;;;;10.40;3.63;;;;;;;6.25;100.00;100337.06;7389015;19;20435;-46
2022/04/25 05:16:14;;;;;;;5.87;3.10;;;;;;;5.84;100.00;100363.91;7395704;19;20948;-45
2022/04/25 05:18:44;;;;;;;12.20;3.90;;;;;;;5.94;100.00;100373.81;7392692;19;20424;-48
2022/04/25 05:21:15;;;;;;;7.90;3.73;;;;;;;5.74;100.00;100380.44;7397180;19;20380;-47
2022/04/25 05:23:45;;;;;;;8.03;3.67;;;;;;;5.79;100.00;100394.34;7391143;19;20951;-48
2022/04/25 05:26:17;;;;;;;8.07;3.57;;;;;;;5.99;100.00;100405.69;7399755;19;20787;-48
2022/04/25 05:28:47;;;;;;;13.10;4.13;;;;;;;6.12;100.00;100411.53;7392446;19;20423;-48
2022/04/25 05:31:16;;;;;;;7.33;3.00;;;;;;;6.22;100.00;100424.91;7396923;19;20385;-51
2022/04/25 05:33:46;;;;;;;7.03;3.23;;;;;;;5.90;100.00;100435.94;7390550;19;20426;-49
2022/04/25 05:36:15;;;;;;;8.20;2.83;;;;;;;5.84;100.00;100430.47;7394173;19;20412;-47
2022/04/25 05:38:45;;;;;;;6.33;3.10;;;;;;;6.14;100.00;100431.31;7391178;19;20416;-45
2022/04/25 05:41:17;;;;;;;7.47;3.50;;;;;;;6.33;100.00;100433.19;7396452;19;20389;-45
2022/04/25 05:43:47;;;;;;;7.83;3.80;;;;;;;6.01;100.00;100452.75;7390535;19;20437;-51
2022/04/25 05:46:16;;;;;;;7.33;3.80;;;;;;;6.39;100.00;100452.22;7394182;19;20420;-49
2022/04/25 05:54:10;;;;;;;10.83;3.10;;;;;;;5.64;100.00;100478.88;7389958;19;20437;-47
2022/04/25 05:56:42;;;;;;;7.37;3.07;;;;;;;5.57;100.00;100476.72;7395091;19;20511;-46
2022/04/25 05:59:12;;;;;;;9.73;3.60;;;;;;;5.51;100.00;100478.16;7390703;19;20415;-49
2022/04/25 06:01:42;;;;;;;7.93;3.10;;;;;;;5.48;100.00;100479.66;7393846;19;20397;-46
2022/04/25 06:04:11;;;;;;;7.27;3.70;;;;;;;5.46;100.00;100481.25;7389912;19;20428;-48
2022/04/25 06:06:41;;;;;;;9.63;3.80;;;;;;;5.50;100.00;100481.50;7394841;19;20388;-48
2022/04/25 06:09:10;;;;;;;6.93;3.40;;;;;;;5.52;100.00;100485.03;7392390;19;20440;-46
2022/04/25 06:11:43;;;;;;;9.50;2.70;;;;;;;5.53;100.00;100497.03;7398579;19;20415;-49
2022/04/25 06:14:13;;;;;;;10.40;3.20;;;;;;;5.48;100.00;100505.25;7387341;19;20448;-48
2022/04/25 06:16:42;;;;;;;8.27;3.70;;;;;;;5.48;100.00;100511.25;7395718;19;20388;-47
2022/04/25 06:19:12;;;;;;;8.00;3.83;;;;;;;5.52;100.00;100507.19;7389004;19;20411;-46
2022/04/25 06:21:41;;;;;;;8.53;3.50;;;;;;;5.51;100.00;100514.00;7396386;19;20398;-45
2022/04/25 06:24:11;;;;;;;6.80;3.20;;;;;;;5.61;100.00;100504.28;7387171;19;20435;-48
2022/04/25 06:26:43;;;;;;;8.00;2.87;;;;;;;5.66;100.00;100502.88;7394466;19;20752;-48
2022/04/25 06:29:12;;;;;;;11.53;3.70;;;;;;;5.79;100.00;100501.88;7388072;19;20417;-50
2022/04/25 06:31:42;;;;;;;9.40;3.40;;;;;;;5.85;100.00;100511.59;7394752;19;20401;-48
2022/04/25 06:34:12;;;;;;;8.50;3.93;;;;;;;5.87;100.00;100522.81;7388570;19;20475;-50
2022/04/25 06:36:41;;;;;;;9.70;3.23;;;;;;;5.93;100.00;100524.06;7394639;19;20401;-46
2022/04/25 06:39:11;;;;;;;7.90;4.10;;;;;;;6.02;100.00;100528.84;7388729;19;20413;-47
2022/04/25 06:41:43;;;;;;;8.83;3.53;;;;;;;6.10;100.00;100530.97;7392696;19;20927;-49
2022/04/25 06:44:12;;;;;;;4.60;2.50;;;;;;;6.22;100.00;100539.34;7386887;19;20458;-46
2022/04/25 06:46:42;;;;;;;16.20;5.90;;;;;;;6.32;100.00;100544.16;7397907;19;20406;-46
2022/04/25 06:49:23;;;;;;;66.93;19.77;;;;;;;6.36;100.00;100555.44;7391121;19;20449;-48
2022/04/25 06:51:56;;;;;;;8.13;3.53;;;;;;;6.48;100.00;100565.53;7393615;19;20388;-48
2022/04/25 06:54:26;;;;;;;6.50;3.27;;;;;;;6.49;100.00;100569.84;7387341;19;20525;-46
2022/04/25 06:56:59;;;;;;;10.50;3.47;;;;;;;6.48;100.00;100568.94;7394308;19;20392;-47
2022/04/25 06:59:28;;;;;;;7.27;3.53;;;;;;;6.55;100.00;100575.31;7390807;19;20535;-46
2022/04/25 07:01:59;;;;;;;348.13;69.57;;;;;;;6.72;100.00;100575.38;7394161;19;20393;-50
2022/04/25 07:04:29;;;;;;;12.87;3.90;;;;;;;6.91;100.00;100573.81;7386469;19;20597;-46
2022/04/25 07:06:58;;;;;;;7.40;3.40;;;;;;;6.94;100.00;100581.63;7393421;19;20394;-49
2022/04/25 07:09:28;;;;;;;11.20;3.50;;;;;;;6.96;100.00;100583.50;7387689;19;20414;-46
2022/04/25 07:12:01;;;;;;;6.37;3.40;;;;;;;7.14;100.00;100585.28;7393339;19;20759;-50
2022/04/25 07:14:33;;;;;;;5.93;2.43;;;;;;;7.20;100.00;100593.31;7384876;19;20949;-48
2022/04/25 07:17:03;;;;;;;35.17;11.20;;;;;;;7.31;100.00;100588.72;7397471;19;20389;-49
2022/04/25 07:19:34;;;;;;;50.63;20.40;;;;;;;7.53;100.00;100577.00;7386063;19;20423;-49
2022/04/25 07:30:14;;;;;;;14.00;6.30;;;;;;;7.79;100.00;100603.16;7393254;19;20399;-49
2022/04/25 07:32:44;;;;;;;12.70;5.90;;;;;;;7.96;100.00;100602.28;7386784;19;20442;-45
2022/04/25 07:35:14;;;;;;;32.03;9.03;;;;;;;8.04;100.00;100609.47;7390154;19;20543;-49
2022/04/25 07:37:43;;;;;;;57.43;14.60;;;;;;;7.96;100.00;100622.84;7387010;19;20429;-47
2022/04/25 07:40:13;;;;;;;25.83;10.40;;;;;;;7.95;100.00;100626.22;7392606;19;20395;-49
2022/04/25 07:42:45;;;;;;;16.10;6.70;;;;;;;7.98;100.00;100625.47;7387232;19;20423;-45
2022/04/25 07:45:14;;;;;;;24.47;11.57;;;;;;;8.13;100.00;100634.75;7390854;19;20435;-48
2022/04/25 07:47:45;;;;;;;13.37;5.93;;;;;;;8.16;100.00;100640.94;7385626;19;21000;-46
2022/04/25 07:50:16;;;;;;;13.80;6.10;;;;;;;8.19;100.00;100650.47;7395539;19;20419;-46
2022/04/25 07:52:45;;;;;;;20.07;7.57;;;;;;;8.26;100.00;100659.41;7386258;19;20434;-49
2022/04/25 07:55:15;;;;;;;7.37;3.53;;;;;;;8.38;100.00;100647.16;7390779;19;21001;-46
2022/04/25 07:57:47;;;;;;;22.50;7.63;;;;;;;8.38;100.00;100649.72;7383903;19;20410;-47
2022/04/25 08:00:17;;;;;;;23.03;7.00;;;;;;;8.39;100.00;100651.47;7391473;19;20906;-47
2022/04/25 08:02:47;;;;;;;7.67;3.70;;;;;;;8.95;100.00;100643.84;7388036;19;20417;-48
2022/04/25 08:05:16;;;;;;;8.00;3.20;;;;;;;9.23;100.00;100646.81;7390276;19;20429;-47
2022/04/25 08:07:46;;;;;;;9.97;4.00;;;;;;;9.45;100.00;100654.69;7386917;19;20411;-47
2022/04/25 08:10:15;;;;;;;28.00;8.93;;;;;;;9.67;100.00;100657.34;7395807;19;20400;-46
2022/04/25 08:18:26;;;;;;;12.07;3.50;;;;;;;10.10;100.00;100666.06;7380651;19;20422;-45
2022/04/25 08:20:56;;;;;;;9.63;3.77;;;;;;;10.30;100.00;100679.75;7391823;19;20390;-47
2022/04/25 08:23:26;;;;;;;17.23;3.73;;;;;;;10.08;100.00;100686.59;7383022;19;20418;-50
2022/04/25 08:25:55;;;;;;;61.10;18.43;;;;;;;9.91;100.00;100687.56;7396126;19;20547;-45
2022/04/25 08:28:27;;;;;;;9.47;3.83;;;;;;;9.69;100.00;100690.09;7391230;19;20771;-46
2022/04/25 08:31:17;;;;;;;23.23;6.83;;;;;;;9.71;100.00;100697.88;7398582;19;20372;-48
2022/04/25 08:33:49;;;;;;;34.90;9.53;;;;;;;9.77;100.00;100693.00;7390663;19;20988;-49
2022/04/25 08:36:18;;;;;;;24.37;5.70;;;;;;;9.94;100.00;100690.28;7398254;19;20388;-48
2022/04/25 08:38:48;;;;;;;11.60;3.60;;;;;;;10.31;100.00;100698.72;7392079;19;20443;-46
2022/04/25 08:41:26;;;;;;;7.10;3.43;;;;;;;10.38;100.00;100700.72;7398545;19;20392;-48
2022/04/25 08:43:59;;;;;;;10.20;3.57;;;;;;;10.37;100.00;100710.13;7390278;19;20760;-48
2022/04/25 08:46:30;;;;;;;24.13;8.53;;;;;;;10.34;100.00;100706.56;7396734;19;20384;-48
2022/04/25 08:49:00;;;;;;;6.80;3.77;;;;;;;10.93;100.00;100712.41;7389221;19;20417;-46
2022/04/25 08:51:31;;;;;;;7.80;3.70;;;;;;;10.74;100.00;100707.34;7398370;19;20413;-50
2022/04/25 08:54:01;;;;;;;5.33;2.93;;;;;;;10.88;100.00;100713.94;7390285;19;20768;-46
2022/04/25 08:56:30;;;;;;;8.93;3.53;;;;;;;10.93;100.00;100722.75;7398268;19;20475;-48
2022/04/25 08:59:02;;;;;;;7.10;3.13;;;;;;;10.73;100.00;100723.66;7386294;19;20414;-48
2022/04/25 09:01:32;;;;;;;5.90;3.43;;;;;;;10.70;100.00;100732.16;7398432;19;20385;-49
2022/04/25 09:04:02;;;;;;;10.67;3.60;;;;;;;11.01;100.00;100732.50;7392924;19;20464;-56
2022/04/25 09:06:32;;;;;;;7.17;3.40;;;;;;;11.16;100.00;100732.22;7395595;19;20400;-58
2022/04/25 09:09:02;;;;;;;4.60;2.97;;;;;;;11.10;100.00;100740.63;7390418;19;20435;-54
2022/04/25 09:14:17;;;;;;;7.93;3.80;;;;;;;10.73;100.00;100739.13;7391332;19;20949;-56
2022/04/25 09:16:47;;;;;;;8.37;4.17;;;;;;;10.65;100.00;100744.88;7397983;19;20380;-54
2022/04/25 09:19:17;;;;;;;9.60;3.80;;;;;;;10.69;100.00;100737.25;7392651;19;20408;-54
2022/04/25 09:21:47;;;;;;;8.10;4.10;;;;;;;10.77;100.00;100739.31;7397961;19;20383;-55
2022/04/25 09:24:24;;;;;;;6.80;2.87;;;;;;;10.95;100.00;100746.06;7393445;19;20475;-55
2022/04/25 09:26:55;;;;;;;5.83;3.63;;;;;;;10.94;100.00;100747.75;7395596;19;20465;-53
2022/04/25 09:29:31;;;;;;;6.70;3.37;;;;;;;10.99;100.00;100752.22;7389917;19;20796;-51
2022/04/25 09:32:01;;;;;;;5.43;3.00;;;;;;;11.13;100.00;100748.47;7397110;19;20414;-51
2022/04/25 09:37:16;;;;;;;7.07;3.37;;;;;;;10.74;100.00;100758.97;7390487;19;20406;-52
2022/04/25 09:39:47;;;;;;;10.63;3.70;;;;;;;10.79;100.00;100758.34;7396505;19;20405;-47
2022/04/25 09:42:16;;;;;;;6.30;3.20;;;;;;;11.04;100.00;100758.44;7392514;19;20394;-49
2022/04/25 09:45:06;;;;;;;9.00;3.70;;;;;;;11.32;100.00;100764.69;7395330;19;20408;-48
2022/04/25 09:47:38;;;;;;;6.70;3.67;;;;;;;11.38;100.00;100761.47;7389701;19;20429;-49
2022/04/25 09:50:10;;;;;;;11.20;3.40;;;;;;;11.37;100.00;100762.31;7399797;19;20391;-46
2022/04/25 09:53:00;;;;;;;6.50;3.33;;;;;;;11.24;100.00;100767.00;7389676;19;20416;-46
2022/04/25 09:55:31;;;;;;;6.70;3.53;;;;;;;11.39;100.00;100760.66;7391319;19;20420;-48
2022/04/25 09:58:01;;;;;;;7.73;3.73;;;;;;;11.46;100.00;100768.72;7387768;19;20395;-46
2022/04/25 10:00:37;;;;;;;5.43;3.20;;;;;;;11.50;100.00;100771.38;7395863;19;20406;-47
2022/04/25 10:03:08;;;;;;;9.60;3.10;;;;;;;11.47;100.00;100774.72;7386432;19;20799;-46
2022/04/25 10:05:42;;;;;;;7.17;4.10;;;;;;;11.63;100.00;100773.63;7391013;19;20441;-48
2022/04/25 10:08:13;;;;;;;5.17;2.87;;;;;;;11.51;100.00;100778.31;7385532;19;20417;-49
2022/04/25 10:10:44;;;;;;;6.80;2.97;;;;;;;11.51;100.00;100781.78;7393147;19;20395;-52
2022/04/25 10:13:20;;;;;;;5.70;3.13;;;;;;;11.69;100.00;100780.72;7388514;19;20411;-48
2022/04/25 10:15:52;;;;;;;7.07;3.50;;;;;;;11.87;100.00;100785.69;7390866;19;20420;-52
2022/04/25 10:18:22;;;;;;;7.40;3.30;;;;;;;12.25;100.00;100794.00;7384611;19;20429;-48
2022/04/25 10:20:52;;;;;;;7.43;3.60;;;;;;;12.22;100.00;100788.72;7394172;19;21277;-47
2022/04/25 10:23:22;;;;;;;8.83;3.50;;;;;;;12.17;100.00;100795.44;7388720;19;20847;-49
2022/04/25 10:25:54;;;;;;;8.83;3.00;;;;;;;12.05;100.00;100790.69;7391880;19;20765;-51
2022/04/25 10:28:28;;;;;;;5.57;3.10;;;;;;;12.08;100.00;100800.25;7387468;19;20965;-49
2022/04/25 10:31:08;;;;;;;7.30;4.27;;;;;;;12.12;100.00;100796.97;7393611;19;20452;-50
2022/04/25 10:33:52;;;;;;;5.70;3.50;;;;;;;12.24;100.00;100787.06;7388992;19;20413;-49
2022/04/25 10:36:46;;;;;;;7.13;3.30;;;;;;;12.43;100.00;100798.91;7392680;19;20393;-51
2022/04/25 10:39:18;;;;;;;5.97;3.53;;;;;;;12.44;100.00;100799.81;7389181;19;20415;-48
2022/04/25 10:44:53;;;;;;;11.80;4.10;;;;;;;12.28;100.00;100791.53;7388383;19;20458;-46
2022/04/25 10:47:27;;;;;;;5.37;3.27;;;;;;;12.02;100.00;100799.16;7386908;19;20406;-50
2022/04/25 10:50:08;;;;;;;7.13;3.00;;;;;;;12.08;100.00;100795.09;7393786;19;20387;-46
2022/04/25 10:52:57;;;;;;;6.00;3.60;;;;;;;12.54;100.00;100799.31;7387799;19;20479;-49
2022/04/25 10:55:45;;;;;;;5.47;3.07;;;;;;;12.65;100.00;100803.97;7392111;19;20419;-48
2022/04/25 10:58:18;;;;;;;6.60;2.90;;;;;;;12.76;100.00;100802.63;7387720;19;20406;-49
2022/04/25 11:00:58;;;;;;;7.17;3.60;;;;;;;12.85;100.00;100796.88;7390974;19;20788;-48
2022/04/25 11:03:34;;;;;;;6.13;3.07;;;;;;;12.83;100.00;100808.88;7393040;19;20454;-50
2022/04/25 11:06:06;;;;;;;4.37;2.80;;;;;;;13.09;100.00;100807.13;7394970;19;20764;-48
2022/04/25 11:08:40;;;;;;;8.33;3.90;;;;;;;13.11;100.00;100809.78;7389026;19;20484;-49
2022/04/25 11:11:16;;;;;;;12.40;3.33;;;;;;;13.04;100.00;100808.72;7397007;19;20398;-48
2022/04/25 11:14:13;;;;;;;95.07;24.90;;;;;;;13.01;100.00;100808.59;7393462;19;20404;-49
2022/04/25 11:16:43;;;;;;;5.50;2.70;;;;;;;13.24;100.00;100808.47;7388410;19;20425;-49
2022/04/25 11:19:21;;;;;;;10.67;5.27;;;;;;;13.21;100.00;100811.84;7396843;19;20814;-50
2022/04/25 11:21:55;;;;;;;5.30;2.97;;;;;;;13.15;100.00;100815.94;7387133;19;20472;-49
2022/04/25 11:24:30;;;;;;;5.10;2.70;;;;;;;13.13;100.00;100809.84;7392781;19;20404;-48
2022/04/25 11:27:01;;;;;;;5.50;2.83;;;;;;;13.29;100.00;100816.38;7388138;19;20966;-48
2022/04/25 11:29:30;;;;;;;6.60;3.20;;;;;;;13.12;100.00;100827.06;7393317;19;20394;-47
2022/04/25 11:32:32;;;;;;;4.97;3.23;;;;;;;13.15;100.00;100821.13;7387427;19;20935;-48
2022/04/25 11:35:07;;;;;;;10.30;4.77;;;;;;;13.39;100.00;100827.91;7392492;19;20429;-46
2022/04/25 11:37:37;;;;;;;7.63;3.07;;;;;;;13.12;100.00;100821.03;7388104;19;20445;-47
2022/04/25 11:40:09;;;;;;;13.80;4.50;;;;;;;13.12;100.00;100823.63;7393653;19;20406;-51
2022/04/25 11:42:39;;;;;;;4.40;2.60;;;;;;;13.19;100.00;100830.75;7385282;19;20415;-47
2022/04/25 11:45:10;;;;;;;6.43;2.90;;;;;;;13.55;100.00;100829.31;7390016;19;20444;-50
2022/04/25 11:47:39;;;;;;;6.10;2.57;;;;;;;13.66;100.00;100830.50;7383741;19;20438;-49
2022/04/25 11:50:13;;;;;;;5.93;2.80;;;;;;;13.59;100.00;100829.44;7393280;19;20410;-48
2022/04/25 11:52:50;;;;;;;5.10;2.43;;;;;;;13.40;98.34;100832.25;7377108;19;20482;-49
2022/04/25 11:55:20;;;;;;;9.27;3.40;;;;;;;13.62;100.00;100837.31;7391484;19;20497;-49
2022/04/25 11:57:50;;;;;;;6.17;3.00;;;;;;;13.66;98.86;100838.28;7383778;19;20504;-49
2022/04/25 12:00:22;;;;;;;4.97;2.70;;;;;;;13.36;96.93;100832.19;7398273;19;20391;-50
2022/04/25 12:02:51;;;;;;;7.73;3.13;;;;;;;13.63;99.54;100833.91;7388765;19;20420;-47
2022/04/25 12:05:32;;;;;;;7.30;3.20;;;;;;;13.63;99.46;100833.91;7396910;19;20793;-48
2022/04/25 12:16:08;;;;;;;6.97;3.67;;;;;;;14.22;98.78;100847.69;7392384;19;20959;-48
2022/04/25 12:18:49;;;;;;;5.40;3.27;;;;;;;14.19;97.20;100847.59;7399338;19;20386;-46
2022/04/25 12:21:22;;;;;;;5.77;3.43;;;;;;;14.37;92.53;100843.75;7393811;19;20458;-51
2022/04/25 12:23:53;;;;;;;6.13;3.30;;;;;;;14.55;93.55;100840.78;7398264;19;20399;-45